Scottsville, Texas
Current Conditions -  °F | °C
As of 5:55 PM on Saturday 22 Nov 2014 (Local Time) from KASL Reporting Station
Scattered Clouds Scattered Clouds  
Wind Chill: 68°   Ceiling: Unl
Heat Index: 68°   Visibility: 10mi
Dew Point: 63°   Wind: 3mph
Humidity: 82%   Direction: 110°ESE
Pressure: 29.91"   Gusts: NA
Location:  32.54°N, 94.24°W
Report Text: KASL 222355Z AUTO 11003KT 10SM SCT023 SCT033 20/17 A2991 RMK AO1 T02020171 10228 20202
Loading
Personal Weather Stations






























Interactive Weather Map New forecast layout! Learn more

10-Day Weather Forecast

Advertisements
Track Severe Weather on mobile